createdAt,value
2023-05-15T00:00:49.108Z,15.85
2023-05-15T00:03:17.577Z,15.78
2023-05-15T00:05:45.339Z,15.75
2023-05-15T00:08:12.904Z,15.73
2023-05-15T00:10:44.911Z,15.73
2023-05-15T00:13:18.997Z,15.72
2023-05-15T00:15:46.529Z,15.71
2023-05-15T00:18:14.169Z,15.69
2023-05-15T00:20:41.672Z,15.68
2023-05-15T00:23:10.234Z,15.69
2023-05-15T00:25:37.761Z,15.68
2023-05-15T00:28:05.344Z,15.68
2023-05-15T00:30:32.862Z,15.70
2023-05-15T00:33:00.592Z,15.71
2023-05-15T00:35:28.128Z,15.73
2023-05-15T00:37:55.633Z,15.68
2023-05-15T00:40:26.044Z,15.68
2023-05-15T00:42:54.359Z,15.71
2023-05-15T00:45:23.438Z,15.77
2023-05-15T00:47:51.864Z,15.83
2023-05-15T00:50:20.901Z,15.83
2023-05-15T00:52:49.154Z,15.84
2023-05-15T00:55:16.851Z,15.87
2023-05-15T00:57:45.932Z,15.80
2023-05-15T01:00:16.796Z,15.80
2023-05-15T01:02:44.687Z,15.82
2023-05-15T01:05:12.282Z,15.74
2023-05-15T01:07:52.503Z,15.69
2023-05-15T01:10:21.206Z,15.70
2023-05-15T01:12:52.994Z,15.66
2023-05-15T01:15:20.705Z,15.64
2023-05-15T01:17:49.912Z,15.68
2023-05-15T01:20:18.943Z,15.73
2023-05-15T01:23:15.634Z,15.68
2023-05-15T01:26:19.935Z,15.70
2023-05-15T01:29:30.045Z,15.61
2023-05-15T01:32:04.052Z,15.65
2023-05-15T01:34:48.360Z,15.64
2023-05-15T01:37:22.227Z,15.63
2023-05-15T01:39:54.353Z,15.64
2023-05-15T01:42:27.442Z,15.65
2023-05-15T01:44:57.527Z,15.63
2023-05-15T01:47:41.905Z,15.62
2023-05-15T01:50:15.298Z,15.58
2023-05-15T01:52:50.604Z,15.52
2023-05-15T01:55:20.620Z,15.42
2023-05-15T01:57:50.356Z,15.38
2023-05-15T02:00:18.984Z,15.33
2023-05-15T02:02:47.695Z,15.28
2023-05-15T02:05:16.201Z,15.26
2023-05-15T02:07:45.195Z,15.19
2023-05-15T02:10:13.731Z,15.19
2023-05-15T02:12:42.347Z,15.19
2023-05-15T02:15:11.372Z,15.18
2023-05-15T02:17:39.465Z,15.11
2023-05-15T02:20:08.343Z,15.06
2023-05-15T02:22:38.720Z,15.06
2023-05-15T02:25:06.596Z,15.05
2023-05-15T02:27:59.339Z,15.02
2023-05-15T02:30:46.110Z,14.92
2023-05-15T02:33:50.182Z,14.87
2023-05-15T02:36:23.443Z,14.90
2023-05-15T02:38:53.688Z,14.91
2023-05-15T02:41:23.018Z,14.92
2023-05-15T02:43:52.273Z,14.94
2023-05-15T02:46:21.240Z,14.99
2023-05-15T02:48:50.558Z,15.01
2023-05-15T02:51:18.816Z,15.09
2023-05-15T02:53:46.459Z,15.14
2023-05-15T02:56:13.948Z,15.22
2023-05-15T02:58:42.085Z,15.26
2023-05-15T03:01:09.634Z,15.26
2023-05-15T03:03:37.243Z,15.22
2023-05-15T03:06:04.930Z,15.17
2023-05-15T03:08:32.467Z,15.14
2023-05-15T03:10:59.959Z,15.12
2023-05-15T03:13:27.511Z,15.09
2023-05-15T03:15:55.008Z,15.15
2023-05-15T03:18:22.874Z,15.17
2023-05-15T03:20:53.283Z,15.22
2023-05-15T03:23:20.811Z,15.26
2023-05-15T03:25:48.452Z,15.21
2023-05-15T03:28:15.988Z,15.21
2023-05-15T03:30:46.435Z,15.12
2023-05-15T03:33:13.940Z,15.14
2023-05-15T03:35:41.438Z,15.19
2023-05-15T03:38:09.009Z,15.19
2023-05-15T03:40:39.612Z,15.03
2023-05-15T03:43:07.184Z,15.09
2023-05-15T03:45:35.223Z,15.13
2023-05-15T03:48:02.763Z,15.05
2023-05-15T03:50:31.362Z,15.02
2023-05-15T03:53:00.276Z,14.96
2023-05-15T03:55:27.989Z,14.91
2023-05-15T03:57:55.594Z,14.91
2023-05-15T04:00:23.837Z,14.92
2023-05-15T04:02:51.630Z,14.84
2023-05-15T04:05:19.816Z,14.80
2023-05-15T04:07:47.781Z,14.85
2023-05-15T04:10:15.355Z,14.87
2023-05-15T04:12:42.831Z,14.86
2023-05-15T04:15:21.806Z,14.90
2023-05-15T04:17:53.556Z,14.89
2023-05-15T04:20:24.234Z,14.74
2023-05-15T04:22:52.678Z,14.83
2023-05-15T04:25:20.544Z,14.86
2023-05-15T04:27:49.169Z,14.83
2023-05-15T04:30:16.949Z,14.88
2023-05-15T04:32:44.553Z,14.97
2023-05-15T04:35:13.423Z,15.05
2023-05-15T04:37:42.750Z,15.09
2023-05-15T04:40:10.750Z,15.03
2023-05-15T04:42:39.505Z,15.08
2023-05-15T04:45:09.091Z,14.94
2023-05-15T04:47:37.368Z,14.90
2023-05-15T04:50:05.440Z,14.99
2023-05-15T04:52:33.262Z,15.07
2023-05-15T04:55:00.927Z,15.05
2023-05-15T04:57:28.426Z,15.11
2023-05-15T04:59:56.052Z,15.09
2023-05-15T05:02:24.372Z,15.15
2023-05-15T05:04:51.959Z,15.06
2023-05-15T05:07:19.512Z,15.17
2023-05-15T05:09:47.086Z,15.11
2023-05-15T05:12:14.664Z,15.06
2023-05-15T05:14:44.515Z,15.13
2023-05-15T05:17:12.108Z,15.18
2023-05-15T05:19:39.681Z,15.05
2023-05-15T05:22:07.577Z,15.03
2023-05-15T05:24:37.239Z,14.98
2023-05-15T05:27:05.443Z,14.97
2023-05-15T05:29:33.273Z,15.11
2023-05-15T05:32:01.218Z,15.25
2023-05-15T05:34:29.031Z,15.19
2023-05-15T05:36:56.519Z,15.19
2023-05-15T05:39:24.042Z,15.02
2023-05-15T05:41:51.607Z,15.18
2023-05-15T05:44:19.182Z,15.22
2023-05-15T05:46:46.849Z,14.99
2023-05-15T05:49:14.320Z,14.89
2023-05-15T05:51:41.874Z,14.96
2023-05-15T05:54:09.415Z,14.94
2023-05-15T05:56:36.970Z,14.91
2023-05-15T05:59:06.338Z,15.07
2023-05-15T06:01:34.058Z,15.15
2023-05-15T06:04:02.055Z,15.25
2023-05-15T06:06:29.898Z,15.13
2023-05-15T06:08:57.394Z,15.24
2023-05-15T06:11:25.665Z,15.39
2023-05-15T06:13:53.281Z,15.44
2023-05-15T06:16:21.493Z,15.52
2023-05-15T06:18:49.035Z,15.46
2023-05-15T06:21:16.562Z,15.54
2023-05-15T06:23:44.180Z,15.69
2023-05-15T06:26:11.737Z,15.82
2023-05-15T06:28:39.244Z,16.01
2023-05-15T06:31:06.803Z,15.64
2023-05-15T06:33:34.315Z,15.72
2023-05-15T06:36:02.233Z,15.89
2023-05-15T06:38:29.843Z,15.80
2023-05-15T06:40:57.318Z,15.87
2023-05-15T06:43:24.812Z,15.83
2023-05-15T06:45:52.344Z,15.90
2023-05-15T06:48:20.010Z,16.06
2023-05-15T06:50:48.182Z,16.01
2023-05-15T06:53:17.488Z,16.03
2023-05-15T06:55:44.988Z,16.04
2023-05-15T06:58:12.661Z,16.06
2023-05-15T07:00:40.266Z,16.14
2023-05-15T07:03:08.038Z,16.00
2023-05-15T07:05:35.665Z,16.10
2023-05-15T07:08:03.189Z,15.99
2023-05-15T07:10:30.697Z,16.03
2023-05-15T07:12:58.215Z,15.87
2023-05-15T07:15:25.768Z,16.16
2023-05-15T07:17:53.330Z,16.29
2023-05-15T07:20:20.992Z,16.28
2023-05-15T07:22:56.272Z,16.31
2023-05-15T07:25:25.837Z,16.32
2023-05-15T07:27:53.690Z,16.43
2023-05-15T07:30:21.362Z,16.19
2023-05-15T07:32:49.113Z,16.47
2023-05-15T07:35:16.924Z,16.73
2023-05-15T07:37:44.498Z,16.90
2023-05-15T07:40:12.417Z,16.54
2023-05-15T07:42:39.901Z,16.84
2023-05-15T07:45:09.281Z,16.98
2023-05-15T07:47:36.842Z,17.02
2023-05-15T07:50:04.797Z,17.03
2023-05-15T07:52:32.304Z,17.14
2023-05-15T07:54:59.813Z,16.93
2023-05-15T07:57:27.861Z,17.02
2023-05-15T07:59:55.949Z,17.20
2023-05-15T08:02:23.682Z,17.38
2023-05-15T08:04:51.987Z,17.35
2023-05-15T08:07:19.502Z,17.45
2023-05-15T08:09:46.963Z,17.43
2023-05-15T08:12:22.012Z,17.70
2023-05-15T08:14:55.163Z,17.75
2023-05-15T08:17:24.432Z,17.56
2023-05-15T08:19:52.886Z,17.89
2023-05-15T08:22:20.420Z,17.86
2023-05-15T08:24:48.902Z,17.94
2023-05-15T08:27:16.404Z,17.95
2023-05-15T08:29:44.070Z,17.94
2023-05-15T08:32:11.649Z,18.08
2023-05-15T08:34:39.252Z,18.23
2023-05-15T08:37:07.109Z,18.26
2023-05-15T08:39:34.749Z,18.22
2023-05-15T08:42:20.881Z,18.12
2023-05-15T08:44:48.585Z,18.14
2023-05-15T08:47:16.363Z,18.20
2023-05-15T08:50:07.522Z,18.25
2023-05-15T08:52:35.617Z,18.44
2023-05-15T08:55:04.497Z,18.22
2023-05-15T08:57:33.798Z,18.22
2023-05-15T09:00:02.690Z,18.32
2023-05-15T09:02:30.199Z,18.24
2023-05-15T09:04:57.994Z,18.18
2023-05-15T09:07:25.784Z,18.01
2023-05-15T09:09:54.437Z,18.08
2023-05-15T09:12:25.323Z,18.09
2023-05-15T09:15:12.126Z,17.85
2023-05-15T09:17:40.348Z,18.08
2023-05-15T09:20:24.041Z,18.26
2023-05-15T09:22:51.551Z,18.31
2023-05-15T09:25:44.401Z,18.24
2023-05-15T09:28:32.010Z,18.09
2023-05-15T09:31:05.517Z,17.71
2023-05-15T09:33:37.736Z,17.95
2023-05-15T09:36:07.425Z,18.27
2023-05-15T09:38:43.577Z,18.35
2023-05-15T09:41:11.475Z,18.30
2023-05-15T09:43:41.093Z,18.49
2023-05-15T09:46:09.475Z,18.55
2023-05-15T09:48:37.209Z,18.64
2023-05-15T09:51:14.205Z,18.22
2023-05-15T09:53:41.828Z,18.46
2023-05-15T09:56:10.479Z,18.60
2023-05-15T09:58:38.025Z,18.72
2023-05-15T10:01:11.537Z,18.86
2023-05-15T10:03:43.610Z,18.75
2023-05-15T10:06:18.948Z,18.55
2023-05-15T10:08:57.678Z,18.76
2023-05-15T10:11:25.612Z,18.95
2023-05-15T10:13:53.104Z,19.14
2023-05-15T10:16:22.463Z,19.17
2023-05-15T10:18:52.474Z,18.97
2023-05-15T10:21:22.984Z,19.06
2023-05-15T10:23:50.881Z,19.33
2023-05-15T10:26:24.570Z,19.46
2023-05-15T10:28:52.950Z,19.59
2023-05-15T10:31:20.701Z,19.63
2023-05-15T10:33:48.831Z,19.73
2023-05-15T10:36:17.467Z,19.55
2023-05-15T10:38:46.785Z,19.36
2023-05-15T10:41:20.866Z,19.54
2023-05-15T10:43:49.583Z,19.50
2023-05-15T10:46:17.487Z,19.65
2023-05-15T10:48:45.338Z,19.58
2023-05-15T10:51:26.575Z,19.20
2023-05-15T10:53:56.112Z,19.47
2023-05-15T10:56:31.367Z,19.55
2023-05-15T10:59:05.290Z,19.63
2023-05-15T11:01:35.456Z,19.86
2023-05-15T11:04:19.407Z,19.65
2023-05-15T11:06:48.330Z,19.72
2023-05-15T11:09:21.931Z,19.97
2023-05-15T11:11:52.877Z,19.97
2023-05-15T11:14:20.495Z,20.26
2023-05-15T11:16:54.284Z,20.32
2023-05-15T11:19:23.187Z,20.54
2023-05-15T11:22:16.013Z,20.24
2023-05-15T11:24:51.937Z,20.63
2023-05-15T11:27:23.335Z,20.52
2023-05-15T11:30:08.568Z,20.62
2023-05-15T11:32:43.902Z,20.33
2023-05-15T11:35:14.048Z,20.12
2023-05-15T11:37:51.882Z,20.52
2023-05-15T11:40:26.061Z,20.63
2023-05-15T11:43:32.665Z,20.54
2023-05-15T11:46:03.293Z,20.84
2023-05-15T11:48:37.463Z,21.02
2023-05-15T11:51:06.025Z,21.29
2023-05-15T11:53:34.005Z,21.27
2023-05-15T11:56:01.946Z,21.45
2023-05-15T11:58:29.596Z,21.49
2023-05-15T12:00:58.128Z,21.18
2023-05-15T12:03:32.436Z,21.37
2023-05-15T12:06:02.726Z,21.69
2023-05-15T12:08:36.025Z,21.91
2023-05-15T12:11:04.793Z,22.05
2023-05-15T12:13:34.001Z,22.03
2023-05-15T12:16:05.268Z,22.19
2023-05-15T12:18:33.710Z,22.25
2023-05-15T12:21:01.591Z,22.21
2023-05-15T12:23:29.269Z,21.97
2023-05-15T12:26:01.397Z,22.14
2023-05-15T12:28:30.594Z,22.43
2023-05-15T12:30:59.210Z,22.60
2023-05-15T12:33:27.036Z,22.65
2023-05-15T12:35:59.961Z,22.51
2023-05-15T12:38:29.009Z,22.40
2023-05-15T12:40:57.093Z,22.50
2023-05-15T12:43:26.009Z,22.82
2023-05-15T12:45:55.797Z,23.02
2023-05-15T12:48:28.836Z,23.11
2023-05-15T12:51:03.849Z,23.04
2023-05-15T12:53:34.313Z,23.12
2023-05-15T12:56:02.365Z,23.23
2023-05-15T12:58:30.096Z,23.21
2023-05-15T13:00:58.666Z,23.37
2023-05-15T13:03:27.846Z,22.78
2023-05-15T13:05:55.798Z,22.68
2023-05-15T13:08:23.398Z,23.08
2023-05-15T13:10:59.115Z,23.16
2023-05-15T13:13:50.151Z,23.36
2023-05-15T13:16:23.745Z,23.32
2023-05-15T13:18:51.736Z,23.53
2023-05-15T13:21:19.625Z,23.61
2023-05-15T13:23:47.253Z,23.07
2023-05-15T13:26:14.955Z,22.81
2023-05-15T13:28:42.535Z,22.96
2023-05-15T13:31:10.162Z,22.98
2023-05-15T13:33:37.721Z,22.65
2023-05-15T13:36:05.784Z,22.61
2023-05-15T13:38:33.421Z,22.67
2023-05-15T13:41:01.056Z,22.71
2023-05-15T13:43:28.618Z,22.68
2023-05-15T13:45:56.206Z,22.74
2023-05-15T13:48:23.727Z,22.17
2023-05-15T13:50:51.286Z,22.28
2023-05-15T13:53:18.829Z,22.34
2023-05-15T13:55:46.981Z,22.09
2023-05-15T13:58:14.712Z,21.66
2023-05-15T14:00:44.154Z,21.69
2023-05-15T14:03:14.932Z,21.57
2023-05-15T14:05:43.032Z,22.09
2023-05-15T14:08:10.938Z,21.92
2023-05-15T14:10:38.486Z,22.22
2023-05-15T14:13:06.347Z,22.38
2023-05-15T14:15:33.842Z,22.68
2023-05-15T14:18:01.383Z,23.10
2023-05-15T14:20:29.008Z,23.08
2023-05-15T14:22:56.676Z,23.46
2023-05-15T14:25:24.412Z,24.11
2023-05-15T14:27:52.319Z,23.98
2023-05-15T14:30:21.874Z,24.42
2023-05-15T14:32:49.443Z,24.54
2023-05-15T14:35:16.964Z,24.22
2023-05-15T14:37:45.151Z,23.87
2023-05-15T14:40:13.245Z,23.63
2023-05-15T14:42:40.860Z,23.44
2023-05-15T14:45:09.160Z,23.35
2023-05-15T14:47:36.683Z,22.97
2023-05-15T14:50:04.883Z,22.83
2023-05-15T14:52:32.454Z,22.46
2023-05-15T14:55:09.166Z,22.22
2023-05-15T14:57:38.489Z,21.99
2023-05-15T15:00:08.024Z,21.55
2023-05-15T15:02:35.797Z,21.22
2023-05-15T15:05:04.422Z,21.18
2023-05-15T15:07:51.900Z,21.01
2023-05-15T15:10:19.431Z,20.87
2023-05-15T15:12:46.938Z,20.74
2023-05-15T15:15:14.436Z,20.60
2023-05-15T15:17:41.944Z,20.74
2023-05-15T15:20:11.564Z,20.73
2023-05-15T15:22:42.177Z,20.75
2023-05-15T15:25:10.014Z,20.65
2023-05-15T15:27:37.676Z,20.61
2023-05-15T15:30:07.229Z,20.60
2023-05-15T15:32:36.194Z,20.63
2023-05-15T15:35:07.226Z,20.68
2023-05-15T15:37:35.985Z,20.68
2023-05-15T15:40:06.137Z,20.67
2023-05-15T15:42:34.678Z,20.62
2023-05-15T15:45:02.904Z,20.08
2023-05-15T15:47:31.789Z,19.72
2023-05-15T15:49:59.724Z,19.60
2023-05-15T15:52:27.835Z,19.39
2023-05-15T15:54:55.347Z,19.21
2023-05-15T15:57:23.166Z,18.89
2023-05-15T15:59:50.728Z,18.85
2023-05-15T16:02:18.261Z,18.66
2023-05-15T16:04:45.761Z,18.54
2023-05-15T16:07:13.267Z,18.54
2023-05-15T16:09:40.806Z,18.56
2023-05-15T16:12:08.549Z,18.56
2023-05-15T16:14:36.102Z,18.50
2023-05-15T16:17:04.157Z,18.45
2023-05-15T16:19:32.758Z,18.37
2023-05-15T16:22:00.349Z,18.33
2023-05-15T16:24:27.964Z,18.42
2023-05-15T16:26:56.471Z,18.53
2023-05-15T16:29:23.991Z,18.66
2023-05-15T16:31:52.314Z,18.74
2023-05-15T16:34:20.711Z,18.72
2023-05-15T16:36:48.299Z,18.69
2023-05-15T16:39:15.984Z,18.81
2023-05-15T16:41:43.617Z,18.82
2023-05-15T16:44:11.317Z,18.86
2023-05-15T16:46:38.972Z,18.93
2023-05-15T16:49:07.186Z,18.94
2023-05-15T16:51:34.757Z,19.03
2023-05-15T16:54:02.988Z,19.05
2023-05-15T16:56:30.569Z,19.12
2023-05-15T16:58:58.057Z,19.19
2023-05-15T17:01:25.702Z,19.26
2023-05-15T17:03:53.596Z,19.28
2023-05-15T17:06:21.425Z,19.18
2023-05-15T17:08:48.967Z,19.21
2023-05-15T17:11:16.537Z,19.21
2023-05-15T17:13:44.909Z,19.07
2023-05-15T17:16:12.490Z,19.01
2023-05-15T17:18:40.123Z,18.94
2023-05-15T17:21:07.685Z,18.84
2023-05-15T17:23:35.799Z,18.79
2023-05-15T17:26:04.167Z,18.75
2023-05-15T17:28:31.676Z,18.64
2023-05-15T17:30:59.708Z,18.63
2023-05-15T17:33:27.247Z,18.64
2023-05-15T17:35:54.837Z,18.62
2023-05-15T17:38:22.324Z,18.49
2023-05-15T17:40:49.830Z,18.39
2023-05-15T17:43:17.630Z,18.35
2023-05-15T17:45:45.725Z,18.35
2023-05-15T17:48:13.345Z,18.42
2023-05-15T17:50:41.997Z,18.41
2023-05-15T17:53:09.516Z,18.42
2023-05-15T17:55:37.176Z,18.44
2023-05-15T17:58:04.744Z,18.37
2023-05-15T18:00:32.255Z,18.34
2023-05-15T18:03:01.062Z,18.16
2023-05-15T18:05:28.870Z,18.02
2023-05-15T18:07:59.373Z,17.93
2023-05-15T18:10:26.865Z,17.80
2023-05-15T18:12:54.331Z,17.78
2023-05-15T18:15:21.851Z,17.74
2023-05-15T18:17:49.810Z,17.76
2023-05-15T18:20:17.644Z,17.41
2023-05-15T18:22:45.950Z,17.31
2023-05-15T18:25:13.481Z,17.40
2023-05-15T18:27:41.192Z,17.19
2023-05-15T18:30:09.463Z,17.15
2023-05-15T18:32:37.195Z,17.23
2023-05-15T18:35:05.101Z,16.97
2023-05-15T18:37:32.806Z,17.15
2023-05-15T18:40:00.495Z,17.17
2023-05-15T18:42:28.924Z,17.14
2023-05-15T18:44:56.424Z,17.20
2023-05-15T18:47:24.035Z,17.26
2023-05-15T18:49:51.963Z,17.36
2023-05-15T18:52:19.990Z,17.41
2023-05-15T18:54:48.141Z,17.46
2023-05-15T18:57:15.682Z,17.45
2023-05-15T18:59:44.356Z,17.48
2023-05-15T19:02:13.205Z,17.45
2023-05-15T19:04:40.736Z,17.37
2023-05-15T19:07:08.250Z,17.38
2023-05-15T19:09:35.848Z,17.40
2023-05-15T19:12:03.421Z,17.38
2023-05-15T19:14:32.048Z,17.43
2023-05-15T19:16:59.914Z,17.45
2023-05-15T19:19:27.555Z,17.43
2023-05-15T19:21:55.040Z,17.28
2023-05-15T19:24:22.742Z,17.28
2023-05-15T19:26:50.250Z,17.24
2023-05-15T19:29:17.815Z,17.21
2023-05-15T19:31:45.605Z,17.23
2023-05-15T19:34:13.567Z,17.21
2023-05-15T19:36:41.620Z,17.14
2023-05-15T19:39:09.093Z,17.18
2023-05-15T19:41:36.627Z,17.14
2023-05-15T19:44:04.867Z,17.12
2023-05-15T19:46:32.504Z,17.10
2023-05-15T19:48:59.991Z,17.08
2023-05-15T19:51:27.579Z,17.06
2023-05-15T19:53:56.517Z,17.05
2023-05-15T19:56:25.253Z,17.08
2023-05-15T19:58:52.921Z,16.99
2023-05-15T20:01:20.418Z,16.92
2023-05-15T20:03:48.002Z,16.94
2023-05-15T20:06:15.709Z,16.97
2023-05-15T20:08:43.294Z,16.98
2023-05-15T20:11:11.103Z,16.94
2023-05-15T20:13:39.145Z,16.96
2023-05-15T20:16:10.300Z,16.94
2023-05-15T20:18:39.557Z,16.95
2023-05-15T20:21:07.158Z,16.98
2023-05-15T20:23:34.744Z,16.96
2023-05-15T20:26:03.238Z,16.92
2023-05-15T20:28:30.731Z,16.86
2023-05-15T20:30:59.749Z,16.82
2023-05-15T20:33:27.510Z,16.84
2023-05-15T20:35:55.168Z,16.81
2023-05-15T20:38:25.237Z,16.77
2023-05-15T20:40:52.953Z,16.72
2023-05-15T20:43:20.762Z,16.72
2023-05-15T20:45:48.295Z,16.70
2023-05-15T20:48:16.037Z,16.63
2023-05-15T20:50:43.531Z,16.62
2023-05-15T20:53:11.214Z,16.66
2023-05-15T20:55:38.848Z,16.70
2023-05-15T20:58:06.346Z,16.74
2023-05-15T21:00:33.903Z,16.74
2023-05-15T21:03:01.596Z,16.77
2023-05-15T21:05:29.183Z,16.82
2023-05-15T21:07:57.228Z,16.85
2023-05-15T21:10:24.935Z,16.88
2023-05-15T21:12:52.591Z,16.90
2023-05-15T21:15:20.111Z,16.92
2023-05-15T21:17:47.665Z,16.93
2023-05-15T21:20:15.307Z,16.93
2023-05-15T21:22:42.851Z,16.91
2023-05-15T21:25:11.119Z,16.87
2023-05-15T21:27:38.660Z,16.88
2023-05-15T21:30:07.100Z,16.87
2023-05-15T21:32:34.591Z,16.87
2023-05-15T21:35:02.112Z,16.85
2023-05-15T21:37:29.611Z,16.85
2023-05-15T21:39:57.222Z,16.83
2023-05-15T21:42:24.701Z,16.72
2023-05-15T21:44:52.199Z,16.73
2023-05-15T21:47:19.741Z,16.60
2023-05-15T21:49:47.368Z,16.61
2023-05-15T21:52:14.852Z,16.47
2023-05-15T21:54:43.826Z,16.48
2023-05-15T21:57:11.392Z,16.44
2023-05-15T21:59:38.875Z,16.42
2023-05-15T22:02:07.384Z,16.37
2023-05-15T22:04:35.150Z,16.39
2023-05-15T22:07:02.679Z,16.37
2023-05-15T22:09:30.193Z,16.36
2023-05-15T22:11:57.677Z,16.31
2023-05-15T22:14:25.325Z,16.35
2023-05-15T22:16:52.912Z,16.31
2023-05-15T22:19:32.595Z,16.28
2023-05-15T22:22:03.293Z,16.24
2023-05-15T22:24:30.782Z,16.22
2023-05-15T22:26:58.320Z,16.18
2023-05-15T22:29:26.565Z,16.16
2023-05-15T22:31:54.185Z,16.07
2023-05-15T22:34:21.769Z,16.02
2023-05-15T22:36:49.251Z,16.08
2023-05-15T22:39:16.782Z,16.03
2023-05-15T22:41:44.310Z,15.93
2023-05-15T22:44:11.971Z,15.94
2023-05-15T22:46:39.912Z,15.89
2023-05-15T22:49:12.354Z,15.92
2023-05-15T22:51:39.857Z,15.86
2023-05-15T22:54:07.947Z,15.73
2023-05-15T22:56:35.430Z,15.93
2023-05-15T22:59:02.914Z,15.96
2023-05-15T23:01:31.461Z,15.90
2023-05-15T23:03:59.058Z,16.00
2023-05-15T23:06:26.578Z,16.02
2023-05-15T23:08:54.064Z,16.09
2023-05-15T23:11:21.903Z,16.09
2023-05-15T23:13:49.399Z,16.11
2023-05-15T23:16:17.009Z,16.09
2023-05-15T23:18:44.610Z,16.12
2023-05-15T23:21:12.250Z,16.08
2023-05-15T23:23:40.066Z,16.11
2023-05-15T23:26:07.798Z,16.14
2023-05-15T23:28:35.270Z,16.19
2023-05-15T23:31:02.822Z,16.04
2023-05-15T23:33:30.539Z,15.93
2023-05-15T23:35:58.041Z,15.91
2023-05-15T23:38:26.281Z,15.83
2023-05-15T23:40:53.967Z,15.79
2023-05-15T23:43:21.577Z,15.80
2023-05-15T23:45:49.106Z,15.78
2023-05-15T23:48:16.678Z,15.65
2023-05-15T23:50:45.116Z,15.65
2023-05-15T23:53:12.659Z,15.63
2023-05-15T23:55:40.273Z,15.62
2023-05-15T23:58:07.812Z,15.54
